Airfield :
LOGIN :

Register | Disclaimer

   EN    FR    IT 

 










Legend :    VFR   Marginal VFR   IFR   Intensive IFR   Very Intensive IFR
Visi :
Ceiling :
>= 8 km
>= 3000ft
5 to 8 km
1000 to 3000 ft
1500m to 5 km
500 to 1000 ft
800 to 1500m
200 to 500 ft
< 800m
< 200 ft
Symbols :   Thunderstorms  Fog  Heavy snow  Heavy precipitations  Wind > 20 kt
SIGMETs :     Misc.  Thunderstorms  Icing  Turbulence  Mountain Waves  Volcanic Ashes







- Airport Elevation : 12 ft
- IATA code : NCE
- Download approach charts


LFMN - Nice

CURRENT METAR :
  • 201200Z 18006KT 9999 FEW025 BKN200 18/13 Q1007 NOSIG

EXPIRED METARs :
  • 201130Z 17008KT 9999 FEW025 BKN230 17/13 Q1006 NOSIG
  • 201100Z 17010KT 9999 FEW025 BKN260 17/13 Q1006 NOSIG
  • 201030Z 17008KT 9999 FEW025 BKN260 17/12 Q1006 NOSIG
  • 201000Z 18006KT 9999 FEW025 BKN260 17/12 Q1006 NOSIG
  • 200930Z 19006KT 9999 FEW025 BKN260 17/12 Q1006 NOSIG

TAF TAF LFMN
Valid from the 20 at 09:00 until the 21 at 15:00 UTC


200800Z 2009/2115 16010KT 9999 SCT025 BKN100
TEMPO 2014/2017 SHRA SCT030TCU BKN070
BECMG 2017/2018 VRB03KT CAVOK
BECMG 2021/2023 34010KT
TEMPO 2101/2111 BKN020
BECMG 2108/2110 18010KT
ATIS : +33 4 93 17 21 16
No reported NOTAMs for that airfield.



MET'MAP, your aeronautical weather chart ! - Copyright ORBIFLY December 2007 - Disclaimer

ORBIFLY MET'MAP TEAM :

Programming & Development : Alexandra Zaïnal
Concept & Development : Baudouin d'Aumeries
Co-Development & Prog : Marc-Olivier Méhu
Technical & hardware support : Manuel Goepfert

Contact : metmap@orbifly.com




SOURCES & CREDITS :

   NOAA